sensor_id;sensor_type;location;lat;lon;timestamp;temperature;humidity
9915;DHT22;4996;48.746;9.174;2023-12-22T00:01:07;6.70;99.90
9915;DHT22;4996;48.746;9.174;2023-12-22T00:03:32;6.90;99.90
9915;DHT22;4996;48.746;9.174;2023-12-22T00:05:58;7.00;99.90
9915;DHT22;4996;48.746;9.174;2023-12-22T00:08:23;7.20;99.90
9915;DHT22;4996;48.746;9.174;2023-12-22T00:10:49;7.30;99.90
9915;DHT22;4996;48.746;9.174;2023-12-22T00:13:15;7.40;99.90
9915;DHT22;4996;48.746;9.174;2023-12-22T00:15:40;7.40;99.90
9915;DHT22;4996;48.746;9.174;2023-12-22T00:18:07;7.50;99.90
9915;DHT22;4996;48.746;9.174;2023-12-22T00:20:33;7.50;99.90
9915;DHT22;4996;48.746;9.174;2023-12-22T00:22:59;7.70;99.90
9915;DHT22;4996;48.746;9.174;2023-12-22T00:25:24;7.70;99.90
9915;DHT22;4996;48.746;9.174;2023-12-22T00:27:50;7.70;99.90
9915;DHT22;4996;48.746;9.174;2023-12-22T00:30:15;7.80;99.90
9915;DHT22;4996;48.746;9.174;2023-12-22T00:32:41;7.80;99.90
9915;DHT22;4996;48.746;9.174;2023-12-22T00:35:06;7.80;99.90
9915;DHT22;4996;48.746;9.174;2023-12-22T00:37:32;7.80;99.90
9915;DHT22;4996;48.746;9.174;2023-12-22T00:39:58;7.90;99.90
9915;DHT22;4996;48.746;9.174;2023-12-22T00:42:23;7.80;99.90
9915;DHT22;4996;48.746;9.174;2023-12-22T00:44:49;7.80;99.90
9915;DHT22;4996;48.746;9.174;2023-12-22T00:47:14;7.70;99.90
9915;DHT22;4996;48.746;9.174;2023-12-22T00:49:40;7.60;99.90
9915;DHT22;4996;48.746;9.174;2023-12-22T00:52:05;7.70;99.90
9915;DHT22;4996;48.746;9.174;2023-12-22T00:54:31;7.60;99.90
9915;DHT22;4996;48.746;9.174;2023-12-22T00:56:57;7.50;99.90
9915;DHT22;4996;48.746;9.174;2023-12-22T00:59:23;7.40;99.90
9915;DHT22;4996;48.746;9.174;2023-12-22T01:01:49;7.70;99.90
9915;DHT22;4996;48.746;9.174;2023-12-22T01:04:15;7.60;99.90
9915;DHT22;4996;48.746;9.174;2023-12-22T01:06:40;7.70;99.90
9915;DHT22;4996;48.746;9.174;2023-12-22T01:09:06;7.60;99.90
9915;DHT22;4996;48.746;9.174;2023-12-22T01:11:32;7.50;99.90
9915;DHT22;4996;48.746;9.174;2023-12-22T01:13:58;7.40;99.90
9915;DHT22;4996;48.746;9.174;2023-12-22T01:16:23;7.50;99.90
9915;DHT22;4996;48.746;9.174;2023-12-22T01:18:49;7.60;99.90
9915;DHT22;4996;48.746;9.174;2023-12-22T01:21:16;7.60;99.90
9915;DHT22;4996;48.746;9.174;2023-12-22T01:23:42;7.60;99.90
9915;DHT22;4996;48.746;9.174;2023-12-22T01:26:07;7.70;99.90
9915;DHT22;4996;48.746;9.174;2023-12-22T01:28:36;7.60;99.90
9915;DHT22;4996;48.746;9.174;2023-12-22T01:31:02;7.50;99.90
9915;DHT22;4996;48.746;9.174;2023-12-22T01:33:27;7.40;99.90
9915;DHT22;4996;48.746;9.174;2023-12-22T01:35:54;7.60;99.90
9915;DHT22;4996;48.746;9.174;2023-12-22T01:38:20;7.60;99.90
9915;DHT22;4996;48.746;9.174;2023-12-22T01:40:45;7.60;99.90
9915;DHT22;4996;48.746;9.174;2023-12-22T01:43:11;7.40;99.90
9915;DHT22;4996;48.746;9.174;2023-12-22T01:45:38;7.40;99.90
9915;DHT22;4996;48.746;9.174;2023-12-22T01:48:04;7.40;99.90
9915;DHT22;4996;48.746;9.174;2023-12-22T01:50:30;7.40;99.90
9915;DHT22;4996;48.746;9.174;2023-12-22T01:52:56;7.40;99.90
9915;DHT22;4996;48.746;9.174;2023-12-22T01:55:22;7.50;99.90
9915;DHT22;4996;48.746;9.174;2023-12-22T01:57:47;7.40;99.90
9915;DHT22;4996;48.746;9.174;2023-12-22T02:00:14;7.40;99.90
9915;DHT22;4996;48.746;9.174;2023-12-22T02:02:41;7.50;99.90
9915;DHT22;4996;48.746;9.174;2023-12-22T02:05:08;7.40;99.90
9915;DHT22;4996;48.746;9.174;2023-12-22T02:07:41;7.30;99.90
9915;DHT22;4996;48.746;9.174;2023-12-22T02:10:10;7.20;99.90
9915;DHT22;4996;48.746;9.174;2023-12-22T02:12:38;7.30;99.90
9915;DHT22;4996;48.746;9.174;2023-12-22T02:15:04;7.20;99.90
9915;DHT22;4996;48.746;9.174;2023-12-22T02:20:02;7.20;99.90
9915;DHT22;4996;48.746;9.174;2023-12-22T02:22:29;7.30;99.90
9915;DHT22;4996;48.746;9.174;2023-12-22T02:24:55;7.40;99.90
9915;DHT22;4996;48.746;9.174;2023-12-22T02:27:45;7.40;99.90
9915;DHT22;4996;48.746;9.174;2023-12-22T02:30:24;7.30;99.90
9915;DHT22;4996;48.746;9.174;2023-12-22T02:32:54;7.40;99.90
9915;DHT22;4996;48.746;9.174;2023-12-22T02:35:24;7.40;99.90
9915;DHT22;4996;48.746;9.174;2023-12-22T02:37:51;7.40;99.90
9915;DHT22;4996;48.746;9.174;2023-12-22T02:40:18;7.30;99.90
9915;DHT22;4996;48.746;9.174;2023-12-22T02:42:44;7.40;99.90
9915;DHT22;4996;48.746;9.174;2023-12-22T02:45:15;7.40;99.90
9915;DHT22;4996;48.746;9.174;2023-12-22T02:47:41;7.30;99.90
9915;DHT22;4996;48.746;9.174;2023-12-22T02:50:07;7.40;99.90
9915;DHT22;4996;48.746;9.174;2023-12-22T02:52:33;7.40;99.90
9915;DHT22;4996;48.746;9.174;2023-12-22T02:54:58;7.40;99.90
9915;DHT22;4996;48.746;9.174;2023-12-22T02:57:24;7.50;99.90
9915;DHT22;4996;48.746;9.174;2023-12-22T02:59:49;7.60;99.90
9915;DHT22;4996;48.746;9.174;2023-12-22T03:02:15;7.60;99.90
9915;DHT22;4996;48.746;9.174;2023-12-22T03:04:40;7.60;99.90
9915;DHT22;4996;48.746;9.174;2023-12-22T03:07:06;7.50;99.90
9915;DHT22;4996;48.746;9.174;2023-12-22T03:09:32;7.60;99.90
9915;DHT22;4996;48.746;9.174;2023-12-22T03:11:58;7.40;99.90
9915;DHT22;4996;48.746;9.174;2023-12-22T03:14:29;7.50;99.90
9915;DHT22;4996;48.746;9.174;2023-12-22T03:16:55;7.40;99.90
9915;DHT22;4996;48.746;9.174;2023-12-22T03:19:21;7.40;99.90
9915;DHT22;4996;48.746;9.174;2023-12-22T03:21:48;7.40;99.90
9915;DHT22;4996;48.746;9.174;2023-12-22T03:24:13;7.60;99.90
9915;DHT22;4996;48.746;9.174;2023-12-22T03:26:39;7.70;99.90
9915;DHT22;4996;48.746;9.174;2023-12-22T03:29:04;7.80;99.90
9915;DHT22;4996;48.746;9.174;2023-12-22T03:31:30;7.70;99.90
9915;DHT22;4996;48.746;9.174;2023-12-22T03:33:56;7.70;99.90
9915;DHT22;4996;48.746;9.174;2023-12-22T03:36:21;7.80;99.90
9915;DHT22;4996;48.746;9.174;2023-12-22T03:38:47;7.70;99.90
9915;DHT22;4996;48.746;9.174;2023-12-22T03:41:13;7.60;99.90
9915;DHT22;4996;48.746;9.174;2023-12-22T03:43:38;7.70;99.90
9915;DHT22;4996;48.746;9.174;2023-12-22T03:46:04;7.60;99.90
9915;DHT22;4996;48.746;9.174;2023-12-22T03:48:29;7.40;99.90
9915;DHT22;4996;48.746;9.174;2023-12-22T03:50:55;7.50;99.90
9915;DHT22;4996;48.746;9.174;2023-12-22T03:53:20;7.50;99.90
9915;DHT22;4996;48.746;9.174;2023-12-22T03:55:46;7.60;99.90
9915;DHT22;4996;48.746;9.174;2023-12-22T03:58:11;7.50;99.90
9915;DHT22;4996;48.746;9.174;2023-12-22T04:00:37;7.40;99.90
9915;DHT22;4996;48.746;9.174;2023-12-22T04:03:02;7.40;99.90
9915;DHT22;4996;48.746;9.174;2023-12-22T04:05:28;7.50;99.90
9915;DHT22;4996;48.746;9.174;2023-12-22T04:07:54;7.50;99.90
9915;DHT22;4996;48.746;9.174;2023-12-22T04:10:19;7.40;99.90
9915;DHT22;4996;48.746;9.174;2023-12-22T04:12:45;7.40;99.90
9915;DHT22;4996;48.746;9.174;2023-12-22T04:15:10;7.30;99.90
9915;DHT22;4996;48.746;9.174;2023-12-22T04:17:36;7.30;99.90
9915;DHT22;4996;48.746;9.174;2023-12-22T04:20:02;7.10;99.90
9915;DHT22;4996;48.746;9.174;2023-12-22T04:22:27;7.20;99.90
9915;DHT22;4996;48.746;9.174;2023-12-22T04:24:53;7.20;99.90
9915;DHT22;4996;48.746;9.174;2023-12-22T04:27:18;7.00;99.90
9915;DHT22;4996;48.746;9.174;2023-12-22T04:29:44;6.80;99.90
9915;DHT22;4996;48.746;9.174;2023-12-22T04:32:09;6.70;99.90
9915;DHT22;4996;48.746;9.174;2023-12-22T04:34:35;6.80;99.90
9915;DHT22;4996;48.746;9.174;2023-12-22T04:37:00;7.00;99.90
9915;DHT22;4996;48.746;9.174;2023-12-22T04:39:26;6.80;99.90
9915;DHT22;4996;48.746;9.174;2023-12-22T04:41:51;7.10;99.90
9915;DHT22;4996;48.746;9.174;2023-12-22T04:44:17;7.00;99.90
9915;DHT22;4996;48.746;9.174;2023-12-22T04:46:42;7.10;99.90
9915;DHT22;4996;48.746;9.174;2023-12-22T04:49:08;7.10;99.90
9915;DHT22;4996;48.746;9.174;2023-12-22T04:51:33;7.00;99.90
9915;DHT22;4996;48.746;9.174;2023-12-22T04:53:59;7.20;99.90
9915;DHT22;4996;48.746;9.174;2023-12-22T04:56:24;7.30;99.90
9915;DHT22;4996;48.746;9.174;2023-12-22T04:58:50;7.30;99.90
9915;DHT22;4996;48.746;9.174;2023-12-22T05:01:15;7.20;99.90
9915;DHT22;4996;48.746;9.174;2023-12-22T05:03:41;7.20;99.90
9915;DHT22;4996;48.746;9.174;2023-12-22T05:06:07;7.30;99.90
9915;DHT22;4996;48.746;9.174;2023-12-22T05:08:32;7.40;99.90
9915;DHT22;4996;48.746;9.174;2023-12-22T05:10:58;7.50;99.90
9915;DHT22;4996;48.746;9.174;2023-12-22T05:13:23;7.40;99.90
9915;DHT22;4996;48.746;9.174;2023-12-22T05:15:49;7.50;99.90
9915;DHT22;4996;48.746;9.174;2023-12-22T05:18:14;7.30;99.90
9915;DHT22;4996;48.746;9.174;2023-12-22T05:20:40;7.60;99.90
9915;DHT22;4996;48.746;9.174;2023-12-22T05:23:05;7.40;99.90
9915;DHT22;4996;48.746;9.174;2023-12-22T05:25:31;7.30;99.90
9915;DHT22;4996;48.746;9.174;2023-12-22T05:27:57;7.40;99.90
9915;DHT22;4996;48.746;9.174;2023-12-22T05:30:22;7.50;99.90
9915;DHT22;4996;48.746;9.174;2023-12-22T05:32:48;7.60;99.90
9915;DHT22;4996;48.746;9.174;2023-12-22T05:35:13;7.60;99.90
9915;DHT22;4996;48.746;9.174;2023-12-22T05:37:39;7.70;99.90
9915;DHT22;4996;48.746;9.174;2023-12-22T05:40:05;7.50;99.90
9915;DHT22;4996;48.746;9.174;2023-12-22T05:42:32;7.50;99.90
9915;DHT22;4996;48.746;9.174;2023-12-22T05:44:57;7.40;99.90
9915;DHT22;4996;48.746;9.174;2023-12-22T05:47:23;7.50;99.90
9915;DHT22;4996;48.746;9.174;2023-12-22T05:49:49;7.40;99.90
9915;DHT22;4996;48.746;9.174;2023-12-22T05:52:14;7.50;99.90
9915;DHT22;4996;48.746;9.174;2023-12-22T05:54:40;7.50;99.90
9915;DHT22;4996;48.746;9.174;2023-12-22T05:57:05;7.60;99.90
9915;DHT22;4996;48.746;9.174;2023-12-22T05:59:32;7.70;99.90
9915;DHT22;4996;48.746;9.174;2023-12-22T06:01:58;7.70;99.90
9915;DHT22;4996;48.746;9.174;2023-12-22T06:04:25;7.70;99.90
9915;DHT22;4996;48.746;9.174;2023-12-22T06:06:50;7.70;99.90
9915;DHT22;4996;48.746;9.174;2023-12-22T06:09:16;7.80;99.90
9915;DHT22;4996;48.746;9.174;2023-12-22T06:11:44;7.90;99.90
9915;DHT22;4996;48.746;9.174;2023-12-22T06:14:09;8.10;99.90
9915;DHT22;4996;48.746;9.174;2023-12-22T06:16:35;7.90;99.90
9915;DHT22;4996;48.746;9.174;2023-12-22T06:19:00;8.00;99.90
9915;DHT22;4996;48.746;9.174;2023-12-22T06:21:26;8.00;99.90
9915;DHT22;4996;48.746;9.174;2023-12-22T06:23:51;7.80;99.90
9915;DHT22;4996;48.746;9.174;2023-12-22T06:26:17;7.80;99.90
9915;DHT22;4996;48.746;9.174;2023-12-22T06:28:42;7.80;99.90
9915;DHT22;4996;48.746;9.174;2023-12-22T06:31:08;7.70;99.90
9915;DHT22;4996;48.746;9.174;2023-12-22T06:33:43;7.70;99.90
9915;DHT22;4996;48.746;9.174;2023-12-22T06:36:18;7.70;99.90
9915;DHT22;4996;48.746;9.174;2023-12-22T06:38:43;7.80;99.90
9915;DHT22;4996;48.746;9.174;2023-12-22T06:41:21;7.90;99.90
9915;DHT22;4996;48.746;9.174;2023-12-22T06:43:47;7.80;99.90
9915;DHT22;4996;48.746;9.174;2023-12-22T06:46:19;7.90;99.90
9915;DHT22;4996;48.746;9.174;2023-12-22T06:48:45;7.90;99.90
9915;DHT22;4996;48.746;9.174;2023-12-22T06:51:18;7.90;99.90
9915;DHT22;4996;48.746;9.174;2023-12-22T06:53:44;8.00;99.90
9915;DHT22;4996;48.746;9.174;2023-12-22T06:56:27;8.20;99.90
9915;DHT22;4996;48.746;9.174;2023-12-22T06:58:54;8.20;99.90
9915;DHT22;4996;48.746;9.174;2023-12-22T07:01:29;8.20;99.90
9915;DHT22;4996;48.746;9.174;2023-12-22T07:03:55;8.30;99.90
9915;DHT22;4996;48.746;9.174;2023-12-22T07:06:22;8.20;99.90
9915;DHT22;4996;48.746;9.174;2023-12-22T07:11:40;8.10;99.90
9915;DHT22;4996;48.746;9.174;2023-12-22T07:14:06;8.20;99.90
9915;DHT22;4996;48.746;9.174;2023-12-22T07:16:32;8.10;99.90
9915;DHT22;4996;48.746;9.174;2023-12-22T07:18:58;8.20;99.90
9915;DHT22;4996;48.746;9.174;2023-12-22T07:21:23;8.00;99.90
9915;DHT22;4996;48.746;9.174;2023-12-22T07:23:49;7.90;99.90
9915;DHT22;4996;48.746;9.174;2023-12-22T07:26:14;7.70;99.90
9915;DHT22;4996;48.746;9.174;2023-12-22T07:28:40;7.80;99.90
9915;DHT22;4996;48.746;9.174;2023-12-22T07:31:05;7.60;99.90
9915;DHT22;4996;48.746;9.174;2023-12-22T07:33:31;7.60;99.90
9915;DHT22;4996;48.746;9.174;2023-12-22T07:35:57;7.70;99.90
9915;DHT22;4996;48.746;9.174;2023-12-22T07:38:22;7.70;99.90
9915;DHT22;4996;48.746;9.174;2023-12-22T07:40:48;7.80;99.90
9915;DHT22;4996;48.746;9.174;2023-12-22T07:43:15;7.80;99.90
9915;DHT22;4996;48.746;9.174;2023-12-22T07:45:40;7.70;99.90
9915;DHT22;4996;48.746;9.174;2023-12-22T07:48:06;7.70;99.90
9915;DHT22;4996;48.746;9.174;2023-12-22T07:50:32;7.60;99.90
9915;DHT22;4996;48.746;9.174;2023-12-22T07:52:58;7.60;99.90
9915;DHT22;4996;48.746;9.174;2023-12-22T07:55:24;7.70;99.90
9915;DHT22;4996;48.746;9.174;2023-12-22T07:57:49;7.90;99.90
9915;DHT22;4996;48.746;9.174;2023-12-22T08:00:19;7.90;99.90
9915;DHT22;4996;48.746;9.174;2023-12-22T08:02:45;8.10;99.90
9915;DHT22;4996;48.746;9.174;2023-12-22T08:05:10;8.20;99.90
9915;DHT22;4996;48.746;9.174;2023-12-22T08:07:36;8.10;99.90
9915;DHT22;4996;48.746;9.174;2023-12-22T08:10:03;8.10;99.90
9915;DHT22;4996;48.746;9.174;2023-12-22T08:12:29;7.80;99.90
9915;DHT22;4996;48.746;9.174;2023-12-22T08:14:54;7.80;99.90
9915;DHT22;4996;48.746;9.174;2023-12-22T08:17:20;7.70;99.90
9915;DHT22;4996;48.746;9.174;2023-12-22T08:19:45;7.70;99.90
9915;DHT22;4996;48.746;9.174;2023-12-22T08:22:11;7.60;99.90
9915;DHT22;4996;48.746;9.174;2023-12-22T08:24:38;7.40;99.90
9915;DHT22;4996;48.746;9.174;2023-12-22T08:27:05;7.40;99.90
9915;DHT22;4996;48.746;9.174;2023-12-22T08:29:31;7.50;99.90
9915;DHT22;4996;48.746;9.174;2023-12-22T08:31:57;7.50;99.90
9915;DHT22;4996;48.746;9.174;2023-12-22T08:34:22;7.30;99.90
9915;DHT22;4996;48.746;9.174;2023-12-22T08:36:48;7.10;99.90
9915;DHT22;4996;48.746;9.174;2023-12-22T08:39:13;7.00;99.90
9915;DHT22;4996;48.746;9.174;2023-12-22T08:41:39;6.90;99.90
9915;DHT22;4996;48.746;9.174;2023-12-22T08:44:05;6.90;99.90
9915;DHT22;4996;48.746;9.174;2023-12-22T08:46:31;7.10;99.90
9915;DHT22;4996;48.746;9.174;2023-12-22T08:48:57;7.10;99.90
9915;DHT22;4996;48.746;9.174;2023-12-22T08:51:23;7.20;99.90
9915;DHT22;4996;48.746;9.174;2023-12-22T08:53:48;7.10;99.90
9915;DHT22;4996;48.746;9.174;2023-12-22T08:56:15;7.10;99.90
9915;DHT22;4996;48.746;9.174;2023-12-22T08:58:42;7.10;99.90
9915;DHT22;4996;48.746;9.174;2023-12-22T09:01:13;7.20;99.90
9915;DHT22;4996;48.746;9.174;2023-12-22T09:03:39;7.30;99.90
9915;DHT22;4996;48.746;9.174;2023-12-22T09:06:09;7.50;99.90
9915;DHT22;4996;48.746;9.174;2023-12-22T09:08:34;7.40;99.90
9915;DHT22;4996;48.746;9.174;2023-12-22T09:11:00;7.40;99.90
9915;DHT22;4996;48.746;9.174;2023-12-22T09:13:25;7.40;99.90
9915;DHT22;4996;48.746;9.174;2023-12-22T09:15:51;7.50;99.90
9915;DHT22;4996;48.746;9.174;2023-12-22T09:18:16;7.60;99.90
9915;DHT22;4996;48.746;9.174;2023-12-22T09:20:42;7.90;99.90
9915;DHT22;4996;48.746;9.174;2023-12-22T09:23:07;7.60;99.90
9915;DHT22;4996;48.746;9.174;2023-12-22T09:25:35;7.50;99.90
9915;DHT22;4996;48.746;9.174;2023-12-22T09:28:00;7.60;99.90
9915;DHT22;4996;48.746;9.174;2023-12-22T09:30:26;7.80;99.90
9915;DHT22;4996;48.746;9.174;2023-12-22T09:32:51;7.70;99.90
9915;DHT22;4996;48.746;9.174;2023-12-22T09:35:18;7.70;99.90
9915;DHT22;4996;48.746;9.174;2023-12-22T09:37:43;7.70;99.90
9915;DHT22;4996;48.746;9.174;2023-12-22T09:40:09;8.00;99.90
9915;DHT22;4996;48.746;9.174;2023-12-22T09:42:37;7.90;99.90
9915;DHT22;4996;48.746;9.174;2023-12-22T09:45:05;7.90;99.90
9915;DHT22;4996;48.746;9.174;2023-12-22T09:47:32;7.90;99.90
9915;DHT22;4996;48.746;9.174;2023-12-22T09:50:00;8.30;99.90
9915;DHT22;4996;48.746;9.174;2023-12-22T09:52:28;8.20;99.90
9915;DHT22;4996;48.746;9.174;2023-12-22T09:54:54;8.30;99.90
9915;DHT22;4996;48.746;9.174;2023-12-22T09:57:22;8.20;99.90
9915;DHT22;4996;48.746;9.174;2023-12-22T09:59:51;8.10;99.90
9915;DHT22;4996;48.746;9.174;2023-12-22T10:02:17;8.10;99.90
9915;DHT22;4996;48.746;9.174;2023-12-22T10:04:44;8.10;99.90
9915;DHT22;4996;48.746;9.174;2023-12-22T10:07:11;8.20;99.90
9915;DHT22;4996;48.746;9.174;2023-12-22T10:09:41;8.20;99.90
9915;DHT22;4996;48.746;9.174;2023-12-22T10:12:09;8.40;99.90
9915;DHT22;4996;48.746;9.174;2023-12-22T10:14:37;8.40;99.90
9915;DHT22;4996;48.746;9.174;2023-12-22T10:17:04;8.50;99.90
9915;DHT22;4996;48.746;9.174;2023-12-22T10:19:30;8.60;99.90
9915;DHT22;4996;48.746;9.174;2023-12-22T10:21:56;8.40;99.90
9915;DHT22;4996;48.746;9.174;2023-12-22T10:27:10;8.30;99.90
9915;DHT22;4996;48.746;9.174;2023-12-22T10:29:36;8.30;99.90
9915;DHT22;4996;48.746;9.174;2023-12-22T10:32:03;8.50;99.90
9915;DHT22;4996;48.746;9.174;2023-12-22T10:37:51;8.60;99.90
9915;DHT22;4996;48.746;9.174;2023-12-22T10:40:21;8.60;99.90
9915;DHT22;4996;48.746;9.174;2023-12-22T10:42:48;8.50;99.90
9915;DHT22;4996;48.746;9.174;2023-12-22T10:45:14;8.40;99.90
9915;DHT22;4996;48.746;9.174;2023-12-22T10:47:42;8.30;99.90
9915;DHT22;4996;48.746;9.174;2023-12-22T10:50:08;8.40;99.90
9915;DHT22;4996;48.746;9.174;2023-12-22T10:52:37;8.30;99.90
9915;DHT22;4996;48.746;9.174;2023-12-22T10:55:02;8.40;99.90
9915;DHT22;4996;48.746;9.174;2023-12-22T10:57:28;8.40;99.90
9915;DHT22;4996;48.746;9.174;2023-12-22T10:59:56;8.50;99.90
9915;DHT22;4996;48.746;9.174;2023-12-22T11:02:23;8.40;99.90
9915;DHT22;4996;48.746;9.174;2023-12-22T11:05:02;8.40;99.90
9915;DHT22;4996;48.746;9.174;2023-12-22T11:07:33;8.40;99.90
9915;DHT22;4996;48.746;9.174;2023-12-22T11:10:03;8.40;99.90
9915;DHT22;4996;48.746;9.174;2023-12-22T11:12:40;8.40;99.90
9915;DHT22;4996;48.746;9.174;2023-12-22T11:15:07;8.20;99.90
9915;DHT22;4996;48.746;9.174;2023-12-22T11:17:34;8.30;99.90
9915;DHT22;4996;48.746;9.174;2023-12-22T11:20:02;8.20;99.90
9915;DHT22;4996;48.746;9.174;2023-12-22T11:22:28;8.10;99.90
9915;DHT22;4996;48.746;9.174;2023-12-22T11:24:56;8.00;99.90
9915;DHT22;4996;48.746;9.174;2023-12-22T11:27:25;8.00;99.90
9915;DHT22;4996;48.746;9.174;2023-12-22T11:29:52;8.10;99.90
9915;DHT22;4996;48.746;9.174;2023-12-22T11:32:19;8.00;99.90
9915;DHT22;4996;48.746;9.174;2023-12-22T11:34:45;8.00;99.90
9915;DHT22;4996;48.746;9.174;2023-12-22T11:37:12;8.20;99.90
9915;DHT22;4996;48.746;9.174;2023-12-22T11:39:41;8.20;99.90
9915;DHT22;4996;48.746;9.174;2023-12-22T11:42:10;8.00;99.90
9915;DHT22;4996;48.746;9.174;2023-12-22T11:44:36;8.20;99.90
9915;DHT22;4996;48.746;9.174;2023-12-22T11:47:09;8.30;99.90
9915;DHT22;4996;48.746;9.174;2023-12-22T11:49:36;8.10;99.90
9915;DHT22;4996;48.746;9.174;2023-12-22T11:52:16;7.80;99.90
9915;DHT22;4996;48.746;9.174;2023-12-22T11:54:52;7.90;99.90
9915;DHT22;4996;48.746;9.174;2023-12-22T12:00:39;8.10;99.90
9915;DHT22;4996;48.746;9.174;2023-12-22T12:02:54;8.20;99.90
9915;DHT22;4996;48.746;9.174;2023-12-22T12:05:20;8.00;99.90
9915;DHT22;4996;48.746;9.174;2023-12-22T12:07:47;8.10;99.90
9915;DHT22;4996;48.746;9.174;2023-12-22T12:13:09;8.00;99.90
9915;DHT22;4996;48.746;9.174;2023-12-22T12:15:35;7.90;99.90
9915;DHT22;4996;48.746;9.174;2023-12-22T12:18:01;8.00;99.90
9915;DHT22;4996;48.746;9.174;2023-12-22T12:20:27;8.00;99.90
9915;DHT22;4996;48.746;9.174;2023-12-22T12:22:54;8.00;99.90
9915;DHT22;4996;48.746;9.174;2023-12-22T12:25:22;7.80;99.90
9915;DHT22;4996;48.746;9.174;2023-12-22T12:30:29;7.70;99.90
9915;DHT22;4996;48.746;9.174;2023-12-22T12:32:59;7.80;99.90
9915;DHT22;4996;48.746;9.174;2023-12-22T12:35:28;7.80;99.90
9915;DHT22;4996;48.746;9.174;2023-12-22T12:37:55;8.00;99.90
9915;DHT22;4996;48.746;9.174;2023-12-22T12:40:23;8.20;99.90
9915;DHT22;4996;48.746;9.174;2023-12-22T12:42:50;8.20;99.90
9915;DHT22;4996;48.746;9.174;2023-12-22T12:45:22;8.30;99.90
9915;DHT22;4996;48.746;9.174;2023-12-22T12:48:01;8.10;99.90
9915;DHT22;4996;48.746;9.174;2023-12-22T12:50:30;7.90;99.90
9915;DHT22;4996;48.746;9.174;2023-12-22T12:52:59;7.80;99.90
9915;DHT22;4996;48.746;9.174;2023-12-22T12:55:25;7.70;99.90
9915;DHT22;4996;48.746;9.174;2023-12-22T12:57:52;7.90;99.90
9915;DHT22;4996;48.746;9.174;2023-12-22T13:00:30;7.90;99.90
9915;DHT22;4996;48.746;9.174;2023-12-22T13:03:00;8.10;99.90
9915;DHT22;4996;48.746;9.174;2023-12-22T13:05:28;8.20;99.90
9915;DHT22;4996;48.746;9.174;2023-12-22T13:08:09;8.10;99.90
9915;DHT22;4996;48.746;9.174;2023-12-22T13:10:35;8.20;99.90
9915;DHT22;4996;48.746;9.174;2023-12-22T13:13:01;8.20;99.90
9915;DHT22;4996;48.746;9.174;2023-12-22T13:15:26;8.30;99.90
9915;DHT22;4996;48.746;9.174;2023-12-22T13:17:52;8.40;99.90
9915;DHT22;4996;48.746;9.174;2023-12-22T13:20:18;8.50;99.90
9915;DHT22;4996;48.746;9.174;2023-12-22T13:22:44;8.50;99.90
9915;DHT22;4996;48.746;9.174;2023-12-22T13:25:10;8.50;99.90
9915;DHT22;4996;48.746;9.174;2023-12-22T13:27:47;8.60;99.90
9915;DHT22;4996;48.746;9.174;2023-12-22T13:30:35;8.40;99.90
9915;DHT22;4996;48.746;9.174;2023-12-22T13:33:08;8.40;99.90
9915;DHT22;4996;48.746;9.174;2023-12-22T13:35:35;8.40;99.90
9915;DHT22;4996;48.746;9.174;2023-12-22T13:38:05;8.40;99.90
9915;DHT22;4996;48.746;9.174;2023-12-22T13:40:32;8.60;99.90
9915;DHT22;4996;48.746;9.174;2023-12-22T13:42:58;8.80;99.90
9915;DHT22;4996;48.746;9.174;2023-12-22T13:45:25;9.00;99.90
9915;DHT22;4996;48.746;9.174;2023-12-22T13:47:51;9.00;99.90
9915;DHT22;4996;48.746;9.174;2023-12-22T13:50:17;8.80;99.90
9915;DHT22;4996;48.746;9.174;2023-12-22T13:52:44;8.70;99.90
9915;DHT22;4996;48.746;9.174;2023-12-22T13:55:15;8.80;99.90
9915;DHT22;4996;48.746;9.174;2023-12-22T13:57:41;9.00;99.90
9915;DHT22;4996;48.746;9.174;2023-12-22T14:00:27;8.80;99.90
9915;DHT22;4996;48.746;9.174;2023-12-22T14:02:54;9.10;99.90
9915;DHT22;4996;48.746;9.174;2023-12-22T14:05:20;9.00;99.90
9915;DHT22;4996;48.746;9.174;2023-12-22T14:07:46;9.10;99.90
9915;DHT22;4996;48.746;9.174;2023-12-22T14:10:12;9.30;99.90
9915;DHT22;4996;48.746;9.174;2023-12-22T14:12:41;9.10;99.90
9915;DHT22;4996;48.746;9.174;2023-12-22T14:15:10;9.20;99.90
9915;DHT22;4996;48.746;9.174;2023-12-22T14:17:36;9.30;99.90
9915;DHT22;4996;48.746;9.174;2023-12-22T14:20:03;9.40;99.90
9915;DHT22;4996;48.746;9.174;2023-12-22T14:22:33;9.30;99.90
9915;DHT22;4996;48.746;9.174;2023-12-22T14:24:59;9.30;99.90
9915;DHT22;4996;48.746;9.174;2023-12-22T14:27:25;9.20;99.90
9915;DHT22;4996;48.746;9.174;2023-12-22T14:29:51;9.30;99.90
9915;DHT22;4996;48.746;9.174;2023-12-22T14:32:16;9.40;99.90
9915;DHT22;4996;48.746;9.174;2023-12-22T14:34:47;9.50;99.90
9915;DHT22;4996;48.746;9.174;2023-12-22T14:37:13;9.60;99.90
9915;DHT22;4996;48.746;9.174;2023-12-22T14:39:38;9.50;99.90
9915;DHT22;4996;48.746;9.174;2023-12-22T14:42:04;9.30;99.90
9915;DHT22;4996;48.746;9.174;2023-12-22T14:44:30;9.30;99.90
9915;DHT22;4996;48.746;9.174;2023-12-22T14:46:55;9.40;99.90
9915;DHT22;4996;48.746;9.174;2023-12-22T14:49:21;9.70;99.90
9915;DHT22;4996;48.746;9.174;2023-12-22T14:51:47;9.60;99.90
9915;DHT22;4996;48.746;9.174;2023-12-22T14:54:17;9.40;99.90
9915;DHT22;4996;48.746;9.174;2023-12-22T14:56:43;9.60;99.90
9915;DHT22;4996;48.746;9.174;2023-12-22T14:59:12;9.50;99.90
9915;DHT22;4996;48.746;9.174;2023-12-22T15:01:38;9.50;99.90
9915;DHT22;4996;48.746;9.174;2023-12-22T15:04:04;9.70;99.90
9915;DHT22;4996;48.746;9.174;2023-12-22T15:06:31;9.60;99.90
9915;DHT22;4996;48.746;9.174;2023-12-22T15:08:57;9.60;99.90
9915;DHT22;4996;48.746;9.174;2023-12-22T15:11:24;9.80;99.90
9915;DHT22;4996;48.746;9.174;2023-12-22T15:13:50;9.70;99.90
9915;DHT22;4996;48.746;9.174;2023-12-22T15:16:16;9.70;99.90
9915;DHT22;4996;48.746;9.174;2023-12-22T15:18:41;9.70;99.90
9915;DHT22;4996;48.746;9.174;2023-12-22T15:21:07;9.80;99.90
9915;DHT22;4996;48.746;9.174;2023-12-22T15:23:32;9.90;99.90
9915;DHT22;4996;48.746;9.174;2023-12-22T15:25:58;9.90;99.90
9915;DHT22;4996;48.746;9.174;2023-12-22T15:28:23;9.70;99.90
9915;DHT22;4996;48.746;9.174;2023-12-22T15:30:49;9.50;99.90
9915;DHT22;4996;48.746;9.174;2023-12-22T15:33:14;9.50;99.90
9915;DHT22;4996;48.746;9.174;2023-12-22T15:35:40;9.40;99.90
9915;DHT22;4996;48.746;9.174;2023-12-22T15:38:06;9.40;99.90
9915;DHT22;4996;48.746;9.174;2023-12-22T15:40:31;9.40;99.90
9915;DHT22;4996;48.746;9.174;2023-12-22T15:42:57;9.60;99.90
9915;DHT22;4996;48.746;9.174;2023-12-22T15:45:22;9.60;99.90
9915;DHT22;4996;48.746;9.174;2023-12-22T15:47:48;9.80;99.90
9915;DHT22;4996;48.746;9.174;2023-12-22T15:50:13;9.80;99.90
9915;DHT22;4996;48.746;9.174;2023-12-22T15:52:41;9.80;99.90
9915;DHT22;4996;48.746;9.174;2023-12-22T15:55:07;9.50;99.90
9915;DHT22;4996;48.746;9.174;2023-12-22T15:57:34;9.70;99.90
9915;DHT22;4996;48.746;9.174;2023-12-22T15:59:59;9.70;99.90
9915;DHT22;4996;48.746;9.174;2023-12-22T16:02:25;9.90;99.90
9915;DHT22;4996;48.746;9.174;2023-12-22T16:04:50;9.90;99.90
9915;DHT22;4996;48.746;9.174;2023-12-22T16:07:16;9.50;99.90
9915;DHT22;4996;48.746;9.174;2023-12-22T16:09:41;9.60;99.90
9915;DHT22;4996;48.746;9.174;2023-12-22T16:12:07;9.70;99.90
9915;DHT22;4996;48.746;9.174;2023-12-22T16:14:33;9.70;99.90
9915;DHT22;4996;48.746;9.174;2023-12-22T16:16:59;9.70;99.90
9915;DHT22;4996;48.746;9.174;2023-12-22T16:19:24;9.60;99.90
9915;DHT22;4996;48.746;9.174;2023-12-22T16:21:50;9.60;99.90
9915;DHT22;4996;48.746;9.174;2023-12-22T16:24:19;9.70;99.90
9915;DHT22;4996;48.746;9.174;2023-12-22T16:26:45;9.90;99.90
9915;DHT22;4996;48.746;9.174;2023-12-22T16:29:11;10.00;99.90
9915;DHT22;4996;48.746;9.174;2023-12-22T16:31:40;9.80;99.90
9915;DHT22;4996;48.746;9.174;2023-12-22T16:34:06;9.90;99.90